メインページ
METAR-TAF:

METAR-TAF

空港 :

ジブラルタル, ジブラルタル

ジブラルタル国際空港

緯度: 36-09N, 経度: 005-21W, 海抜: 5m

現時点の気象観測

当レポートは1時間8分前の04:50(UTC)に作成
東/北東の風 14kt
気温 25°C
湿度 89%
気圧 1016 hPa
視程10km以上
高度1200ftの雲はほとんどない

METAR: LXGB 200450Z 07014KT 9999 FEW012 25/23 Q1016 NOSIG

時間: 07:58 (05:58 UTC)

予報

当レポートは1時間18分前の04:40(UTC)に作成
予報は20日の 06時(UTC)から 20日の 15時(UTC)まで有効
東/北東の風 14kt
視程10km以上
高度1200ftの雲はほとんどない
20日の 06時(UTC)から 20日の 09時(UTC)まで一時的に
の風 15kt、最大25ktの突風を伴う
確率 30% :
20日の 06時(UTC)から 20日の 15時(UTC)まで一時的に
高度1800ftの雲は散在している

TAF: LXGB 200440Z 2006/2015 07014KT 9999 FEW012 TEMPO 2006/2009 09015G25KT PROB30 TEMPO 2006/2015 SCT018

4,000以上の空港の気象観測と天気予報(METAR報とTAF報)

利用可能な観測所は地図上に黄色い丸と赤い丸で示す。

丸の上にカーソルを重ねると観測所名を参照できる。

次にクリックすると気象観測と天気予報を参照できる。

マップの切り替え:黒色「×」印の緑ボタンをクリックして拡大、「-」印の緑ボタンをクリックして縮小、緑色の三角印をクリックして隣りの地図に切り替え


METAR-TAF: